Time;durP1;ratioP1;P1;durP2;ratioP2;P2;SDS_P1;SDS_P2;PMS_P1;PMS_P2;Temp;Humidity;BMP_temperature;BMP_pressure;BME280_temperature;BME280_humidity;BME280_pressure;Samples;Min_cycle;Max_cycle;Signal;HPM_P1;HPM_P2
2024/04/26 00:01:55;;;;;;;;;;;11.10;72.00;;;;;;5209654;27;86296;-44
2024/04/26 00:04:20;;;;;;;;;;;11.00;72.00;;;;;;5227360;27;85285;-43
2024/04/26 00:06:46;;;;;;;;;;;11.00;72.00;;;;;;5223651;27;87147;-43
2024/04/26 00:09:11;;;;;;;;;;;11.00;72.20;;;;;;5214815;27;85271;-43
2024/04/26 00:11:40;;;;;;;;;;;11.00;72.00;;;;;;5212503;27;85369;-45
2024/04/26 00:14:06;;;;;;;;;;;11.00;72.00;;;;;;5207933;27;85992;-43
2024/04/26 00:16:37;;;;;;;;;;;11.00;72.10;;;;;;5211413;27;85644;-43
2024/04/26 00:19:03;;;;;;;;;;;10.90;71.90;;;;;;5220735;27;85807;-44
2024/04/26 00:21:28;;;;;;;;;;;11.00;72.10;;;;;;5198975;27;86285;-44
2024/04/26 00:23:54;;;;;;;;;;;11.00;72.00;;;;;;5226029;27;85301;-44
2024/04/26 00:26:19;;;;;;;;;;;11.00;72.00;;;;;;5225442;27;85624;-43
2024/04/26 00:28:45;;;;;;;;;;;10.90;71.90;;;;;;5207874;27;85198;-42
2024/04/26 00:31:10;;;;;;;;;;;10.90;71.90;;;;;;5231473;27;86702;-43
2024/04/26 00:33:37;;;;;;;;;;;10.90;71.90;;;;;;5223201;27;87202;-45
2024/04/26 00:36:03;;;;;;;;;;;10.90;72.00;;;;;;5213581;27;86764;-44
2024/04/26 00:38:29;;;;;;;;;;;10.90;71.90;;;;;;5236405;26;86672;-43
2024/04/26 00:40:54;;;;;;;;;;;10.90;72.00;;;;;;5208251;27;85274;-44
2024/04/26 00:43:20;;;;;;;;;;;10.90;72.00;;;;;;5227472;27;86683;-44
2024/04/26 00:45:45;;;;;;;;;;;10.90;72.00;;;;;;5235648;27;87222;-43
2024/04/26 00:48:11;;;;;;;;;;;10.90;72.00;;;;;;5217850;27;84577;-43
2024/04/26 00:50:37;;;;;;;;;;;10.90;71.90;;;;;;5221695;27;85964;-46
2024/04/26 00:53:02;;;;;;;;;;;10.90;71.90;;;;;;5220521;27;85280;-44
2024/04/26 00:55:29;;;;;;;;;;;10.90;72.00;;;;;;5217837;27;86204;-43
2024/04/26 00:57:54;;;;;;;;;;;10.80;72.00;;;;;;5212328;26;85734;-44
2024/04/26 01:00:20;;;;;;;;;;;10.80;72.00;;;;;;5213491;26;85451;-43
2024/04/26 01:02:46;;;;;;;;;;;10.90;71.90;;;;;;5206539;27;86601;-43
2024/04/26 01:05:11;;;;;;;;;;;10.80;72.00;;;;;;5230667;26;85756;-43
2024/04/26 01:07:37;;;;;;;;;;;10.80;72.00;;;;;;5209756;27;85708;-44
2024/04/26 01:10:02;;;;;;;;;;;10.80;71.80;;;;;;5216702;26;85276;-44
2024/04/26 01:12:28;;;;;;;;;;;10.80;71.90;;;;;;5242992;26;84981;-44
2024/04/26 01:14:54;;;;;;;;;;;10.80;71.80;;;;;;5243131;26;85586;-45
2024/04/26 01:17:19;;;;;;;;;;;10.80;71.80;;;;;;5262080;26;86008;-43
2024/04/26 01:19:45;;;;;;;;;;;10.80;71.90;;;;;;5254060;26;86479;-42
2024/04/26 01:22:26;;;;;;;;;;;10.70;71.90;;;;;;5242368;26;86369;-44
2024/04/26 01:24:52;;;;;;;;;;;10.80;72.00;;;;;;5264453;26;85158;-43
2024/04/26 01:27:17;;;;;;;;;;;10.70;71.80;;;;;;5257425;26;85767;-42
2024/04/26 01:29:43;;;;;;;;;;;10.80;71.90;;;;;;5256319;26;85789;-42
2024/04/26 01:32:08;;;;;;;;;;;10.70;72.00;;;;;;5270113;26;85955;-45
2024/04/26 01:34:34;;;;;;;;;;;10.70;71.80;;;;;;5228141;26;86710;-43
2024/04/26 01:36:59;;;;;;;;;;;10.70;71.80;;;;;;5250402;26;86395;-44
2024/04/26 01:39:25;;;;;;;;;;;10.70;71.80;;;;;;5258733;26;85975;-43
2024/04/26 01:41:50;;;;;;;;;;;10.70;71.90;;;;;;5241092;26;85759;-43
2024/04/26 01:44:16;;;;;;;;;;;10.70;72.00;;;;;;5254293;26;86920;-44
2024/04/26 01:46:41;;;;;;;;;;;10.70;71.90;;;;;;5250341;26;85272;-45
2024/04/26 01:49:07;;;;;;;;;;;10.70;71.90;;;;;;5238529;26;86691;-44
2024/04/26 01:51:32;;;;;;;;;;;10.60;71.80;;;;;;5265744;26;85955;-43
2024/04/26 01:53:58;;;;;;;;;;;10.70;71.80;;;;;;5259376;26;85425;-44
2024/04/26 01:56:23;;;;;;;;;;;10.60;71.70;;;;;;5249428;26;86082;-43
2024/04/26 01:58:49;;;;;;;;;;;10.60;71.70;;;;;;5265054;26;86329;-43
2024/04/26 02:01:16;;;;;;;;;;;10.60;71.80;;;;;;5237952;26;84837;-42
2024/04/26 02:03:41;;;;;;;;;;;10.60;72.00;;;;;;5247176;26;85236;-45
2024/04/26 02:06:07;;;;;;;;;;;10.60;72.10;;;;;;5260222;26;86859;-44
2024/04/26 02:08:32;;;;;;;;;;;10.60;72.00;;;;;;5238811;26;86176;-45
2024/04/26 02:10:58;;;;;;;;;;;10.60;71.80;;;;;;5248034;26;87251;-43
2024/04/26 02:13:24;;;;;;;;;;;10.60;71.80;;;;;;5243477;26;85264;-44
2024/04/26 02:15:49;;;;;;;;;;;10.60;71.90;;;;;;5252062;26;86675;-43
2024/04/26 02:18:15;;;;;;;;;;;10.60;71.80;;;;;;5256750;26;85520;-43
2024/04/26 02:20:40;;;;;;;;;;;10.50;71.70;;;;;;5252607;26;85890;-43
2024/04/26 02:23:06;;;;;;;;;;;10.50;71.70;;;;;;5244283;26;87022;-44
2024/04/26 02:25:31;;;;;;;;;;;10.50;71.70;;;;;;5271243;26;84557;-44
2024/04/26 02:27:57;;;;;;;;;;;10.50;71.70;;;;;;5240092;26;86204;-44
2024/04/26 02:30:22;;;;;;;;;;;10.50;71.80;;;;;;5255973;26;86908;-43
2024/04/26 02:32:48;;;;;;;;;;;10.50;71.70;;;;;;5248993;26;86356;-43
2024/04/26 02:35:13;;;;;;;;;;;10.50;71.70;;;;;;5236939;26;87493;-43
2024/04/26 02:37:39;;;;;;;;;;;10.50;71.70;;;;;;5255915;26;85257;-44
2024/04/26 02:40:05;;;;;;;;;;;10.50;71.60;;;;;;5249020;26;85338;-45
2024/04/26 02:42:30;;;;;;;;;;;10.50;71.60;;;;;;5247458;26;85618;-45
2024/04/26 02:44:56;;;;;;;;;;;10.50;71.60;;;;;;5251929;26;85561;-43
2024/04/26 02:47:21;;;;;;;;;;;10.50;71.60;;;;;;5248545;26;86611;-43
2024/04/26 02:49:48;;;;;;;;;;;10.40;71.50;;;;;;5252080;26;86486;-44
2024/04/26 02:52:13;;;;;;;;;;;10.40;71.60;;;;;;5262493;26;85569;-43
2024/04/26 02:54:39;;;;;;;;;;;10.40;71.60;;;;;;5242270;26;87504;-43
2024/04/26 02:57:04;;;;;;;;;;;10.40;71.60;;;;;;5248971;26;86996;-43
2024/04/26 02:59:30;;;;;;;;;;;10.40;71.60;;;;;;5269540;26;86612;-45
2024/04/26 03:01:56;;;;;;;;;;;10.40;72.10;;;;;;5242714;26;85190;-45
2024/04/26 03:04:21;;;;;;;;;;;10.40;71.60;;;;;;5254468;26;85935;-43
2024/04/26 03:06:47;;;;;;;;;;;10.40;71.60;;;;;;5248584;26;85688;-43
2024/04/26 03:09:12;;;;;;;;;;;10.30;71.60;;;;;;5240817;26;85296;-44
2024/04/26 03:11:38;;;;;;;;;;;10.30;71.50;;;;;;5256163;26;85329;-44
2024/04/26 03:14:03;;;;;;;;;;;10.30;71.50;;;;;;5239134;26;86710;-44
2024/04/26 03:16:29;;;;;;;;;;;10.30;71.40;;;;;;5251629;26;85785;-44
2024/04/26 03:18:55;;;;;;;;;;;10.30;71.60;;;;;;5265366;26;85542;-43
2024/04/26 03:21:20;;;;;;;;;;;10.30;71.50;;;;;;5248310;26;87700;-42
2024/04/26 03:23:46;;;;;;;;;;;10.30;71.50;;;;;;5245260;26;87201;-46
2024/04/26 03:26:15;;;;;;;;;;;10.30;71.50;;;;;;5254234;26;85985;-43
2024/04/26 03:28:46;;;;;;;;;;;10.30;71.50;;;;;;5235953;26;85527;-45
2024/04/26 03:31:21;;;;;;;;;;;10.20;71.40;;;;;;5262444;26;85402;-44
2024/04/26 03:33:47;;;;;;;;;;;10.20;71.40;;;;;;5248252;26;86703;-43
2024/04/26 03:36:12;;;;;;;;;;;10.20;71.40;;;;;;5244828;26;85913;-43
2024/04/26 03:38:38;;;;;;;;;;;10.20;71.40;;;;;;5255611;26;85454;-43
2024/04/26 03:41:03;;;;;;;;;;;10.20;71.50;;;;;;5250314;26;85257;-43
2024/04/26 03:43:29;;;;;;;;;;;10.20;71.30;;;;;;5250156;26;85517;-44
2024/04/26 03:45:55;;;;;;;;;;;10.20;71.40;;;;;;5253917;26;86113;-43
2024/04/26 03:48:20;;;;;;;;;;;10.20;71.40;;;;;;5236775;26;86970;-44
2024/04/26 03:50:46;;;;;;;;;;;10.20;71.30;;;;;;5252732;26;86141;-42
2024/04/26 03:53:11;;;;;;;;;;;10.20;71.40;;;;;;5266434;26;85922;-45
2024/04/26 03:55:37;;;;;;;;;;;10.10;71.40;;;;;;5245650;26;87097;-44
2024/04/26 03:58:04;;;;;;;;;;;10.10;71.40;;;;;;5246785;26;85669;-43
2024/04/26 04:00:32;;;;;;;;;;;10.10;71.30;;;;;;5252348;26;86633;-44
2024/04/26 04:02:58;;;;;;;;;;;10.10;71.30;;;;;;5257424;26;84967;-45
2024/04/26 04:05:25;;;;;;;;;;;10.10;71.20;;;;;;5258057;26;85806;-44
2024/04/26 04:07:52;;;;;;;;;;;10.10;71.20;;;;;;5245174;26;87337;-45
2024/04/26 04:10:18;;;;;;;;;;;10.10;71.30;;;;;;5264583;26;86467;-43
2024/04/26 04:12:46;;;;;;;;;;;10.10;71.30;;;;;;5262124;26;85916;-44
2024/04/26 04:15:12;;;;;;;;;;;10.00;71.30;;;;;;5249697;26;86740;-44
2024/04/26 04:17:38;;;;;;;;;;;10.00;71.20;;;;;;5241559;26;85954;-45
2024/04/26 04:20:04;;;;;;;;;;;10.00;71.10;;;;;;5245338;26;85284;-43
2024/04/26 04:22:29;;;;;;;;;;;10.00;71.30;;;;;;5250753;26;86863;-44
2024/04/26 04:24:55;;;;;;;;;;;10.00;71.20;;;;;;5243173;26;85714;-42
2024/04/26 04:27:20;;;;;;;;;;;10.00;71.10;;;;;;5239765;26;84972;-43
2024/04/26 04:29:46;;;;;;;;;;;10.00;71.10;;;;;;5258619;26;85264;-43
2024/04/26 04:32:11;;;;;;;;;;;10.00;71.20;;;;;;5260408;26;86390;-43
2024/04/26 04:34:37;;;;;;;;;;;10.00;71.90;;;;;;5241415;26;87672;-44
2024/04/26 04:37:02;;;;;;;;;;;9.90;71.20;;;;;;5245571;26;86876;-44
2024/04/26 04:39:28;;;;;;;;;;;10.00;71.10;;;;;;5251015;26;86309;-42
2024/04/26 04:41:53;;;;;;;;;;;10.00;71.10;;;;;;5249078;26;85848;-44
2024/04/26 04:44:19;;;;;;;;;;;9.90;71.10;;;;;;5252574;26;85634;-43
2024/04/26 04:46:45;;;;;;;;;;;9.90;71.10;;;;;;5250802;26;86817;-44
2024/04/26 04:49:10;;;;;;;;;;;10.00;71.10;;;;;;5241397;26;85339;-45
2024/04/26 04:51:36;;;;;;;;;;;9.90;71.10;;;;;;5260091;26;86583;-42
2024/04/26 04:54:01;;;;;;;;;;;9.90;71.00;;;;;;5244832;26;86891;-43
2024/04/26 04:56:27;;;;;;;;;;;9.90;71.00;;;;;;5249777;26;85317;-44
2024/04/26 04:58:52;;;;;;;;;;;9.90;71.10;;;;;;5258603;26;86363;-43
2024/04/26 05:01:18;;;;;;;;;;;9.90;71.10;;;;;;5240511;26;85661;-42
2024/04/26 05:03:45;;;;;;;;;;;9.90;71.00;;;;;;5247213;26;85541;-44
2024/04/26 05:06:11;;;;;;;;;;;9.90;71.00;;;;;;5258485;26;85598;-44
2024/04/26 05:08:36;;;;;;;;;;;9.90;71.00;;;;;;5244522;26;86058;-43
2024/04/26 05:11:02;;;;;;;;;;;9.90;71.00;;;;;;5262001;26;86773;-44
2024/04/26 05:13:28;;;;;;;;;;;9.90;71.00;;;;;;5254539;26;87087;-43
2024/04/26 05:15:54;;;;;;;;;;;9.80;71.20;;;;;;5245609;26;84614;-44
2024/04/26 05:18:19;;;;;;;;;;;9.80;71.10;;;;;;5258171;26;85238;-44
2024/04/26 05:20:45;;;;;;;;;;;9.90;71.00;;;;;;5234269;26;85643;-47
2024/04/26 05:23:12;;;;;;;;;;;9.90;71.00;;;;;;5238159;26;86246;-46
2024/04/26 05:25:37;;;;;;;;;;;9.80;71.10;;;;;;5260365;26;87563;-44
2024/04/26 05:28:03;;;;;;;;;;;9.80;71.00;;;;;;5242747;26;85318;-46
2024/04/26 05:30:28;;;;;;;;;;;9.80;70.90;;;;;;5256807;26;85346;-44
2024/04/26 05:32:55;;;;;;;;;;;9.80;71.00;;;;;;5256386;26;87388;-45
2024/04/26 05:35:21;;;;;;;;;;;9.80;71.00;;;;;;5242700;26;86058;-44
2024/04/26 05:37:47;;;;;;;;;;;9.80;71.00;;;;;;5250128;26;86603;-43
2024/04/26 05:40:12;;;;;;;;;;;9.80;71.20;;;;;;5267165;26;84986;-45
2024/04/26 05:42:38;;;;;;;;;;;9.80;71.00;;;;;;5246155;26;85808;-44
2024/04/26 05:45:03;;;;;;;;;;;9.80;71.00;;;;;;5259122;26;86945;-43
2024/04/26 05:47:29;;;;;;;;;;;9.90;71.10;;;;;;5247913;26;86627;-44
2024/04/26 05:49:55;;;;;;;;;;;9.80;71.00;;;;;;5252376;26;85814;-44
2024/04/26 05:52:20;;;;;;;;;;;9.80;70.90;;;;;;5243053;26;87127;-45
2024/04/26 05:54:46;;;;;;;;;;;9.80;71.00;;;;;;5239164;26;85361;-45
2024/04/26 05:57:11;;;;;;;;;;;9.80;71.00;;;;;;5249825;26;85841;-44
2024/04/26 05:59:37;;;;;;;;;;;9.80;71.00;;;;;;5245798;26;87366;-44
2024/04/26 06:02:02;;;;;;;;;;;9.80;71.10;;;;;;5240308;26;87422;-43
2024/04/26 06:04:28;;;;;;;;;;;9.90;70.90;;;;;;5250092;26;86483;-43
2024/04/26 06:06:53;;;;;;;;;;;9.90;70.90;;;;;;5256593;26;85999;-43
2024/04/26 06:09:20;;;;;;;;;;;9.90;70.70;;;;;;5241749;26;85837;-42
2024/04/26 06:11:46;;;;;;;;;;;9.90;70.60;;;;;;5246208;26;86940;-43
2024/04/26 06:14:12;;;;;;;;;;;9.90;70.70;;;;;;5247127;26;85298;-43
2024/04/26 06:16:37;;;;;;;;;;;9.90;70.70;;;;;;5245591;26;86467;-44
2024/04/26 06:19:03;;;;;;;;;;;9.90;70.60;;;;;;5239237;26;86240;-42
2024/04/26 06:21:28;;;;;;;;;;;9.90;70.70;;;;;;5236903;26;85482;-43
2024/04/26 06:23:54;;;;;;;;;;;9.90;70.60;;;;;;5244151;26;85527;-43
2024/04/26 06:26:20;;;;;;;;;;;9.90;70.80;;;;;;5255128;26;86963;-44
2024/04/26 06:28:45;;;;;;;;;;;9.90;70.80;;;;;;5236393;26;84609;-44
2024/04/26 06:31:13;;;;;;;;;;;9.90;70.70;;;;;;5233021;26;85720;-43
2024/04/26 06:33:38;;;;;;;;;;;9.80;70.80;;;;;;5246421;26;87156;-44
2024/04/26 06:36:05;;;;;;;;;;;9.80;71.10;;;;;;5249367;26;86177;-43
2024/04/26 06:38:30;;;;;;;;;;;9.80;70.60;;;;;;5242409;26;87054;-44
2024/04/26 06:40:56;;;;;;;;;;;9.80;71.00;;;;;;5235796;26;86125;-44
2024/04/26 06:43:22;;;;;;;;;;;9.80;70.70;;;;;;5250174;26;86579;-42
2024/04/26 06:45:47;;;;;;;;;;;9.90;70.70;;;;;;5258981;26;85287;-41
2024/04/26 06:48:13;;;;;;;;;;;9.90;70.90;;;;;;5236815;26;87466;-43
2024/04/26 06:50:39;;;;;;;;;;;9.80;70.80;;;;;;5240695;26;85315;-45
2024/04/26 06:53:05;;;;;;;;;;;9.90;70.90;;;;;;5259450;26;86476;-44
2024/04/26 06:55:30;;;;;;;;;;;9.80;70.80;;;;;;5238314;26;85820;-42
2024/04/26 06:57:56;;;;;;;;;;;9.90;70.80;;;;;;5258787;26;87098;-43
2024/04/26 07:00:22;;;;;;;;;;;9.80;70.70;;;;;;5240853;26;87011;-42
2024/04/26 07:02:47;;;;;;;;;;;9.90;71.40;;;;;;5234925;26;86789;-42
2024/04/26 07:05:13;;;;;;;;;;;9.90;70.60;;;;;;5258757;26;87312;-42
2024/04/26 07:07:38;;;;;;;;;;;9.90;70.80;;;;;;5239974;26;86218;-43
2024/04/26 07:10:04;;;;;;;;;;;9.80;71.10;;;;;;5238268;26;86412;-42
2024/04/26 07:12:32;;;;;;;;;;;9.80;71.10;;;;;;5259940;26;87362;-43
2024/04/26 07:14:58;;;;;;;;;;;9.90;70.80;;;;;;5242413;26;85573;-43
2024/04/26 07:17:23;;;;;;;;;;;9.90;71.00;;;;;;5237394;26;84891;-43
2024/04/26 07:19:49;;;;;;;;;;;9.80;71.20;;;;;;5264354;26;85430;-42
2024/04/26 07:22:15;;;;;;;;;;;9.90;71.10;;;;;;5243268;26;86474;-43
2024/04/26 07:24:40;;;;;;;;;;;9.80;71.00;;;;;;5245708;26;86953;-43
2024/04/26 07:27:06;;;;;;;;;;;9.80;71.10;;;;;;5238877;26;85664;-42
2024/04/26 07:29:31;;;;;;;;;;;9.80;71.20;;;;;;5233778;26;85467;-44
2024/04/26 07:31:57;;;;;;;;;;;9.80;71.10;;;;;;5257960;26;87001;-43
2024/04/26 07:34:22;;;;;;;;;;;9.80;71.20;;;;;;5248332;26;85898;-43
2024/04/26 07:36:48;;;;;;;;;;;9.90;71.30;;;;;;5242869;26;85827;-42
2024/04/26 07:39:13;;;;;;;;;;;9.90;71.00;;;;;;5244170;26;86554;-43
2024/04/26 07:41:39;;;;;;;;;;;9.80;71.40;;;;;;5230479;26;86444;-43
2024/04/26 07:44:05;;;;;;;;;;;9.80;71.20;;;;;;5252892;26;85405;-43
2024/04/26 07:46:31;;;;;;;;;;;9.90;71.40;;;;;;5253134;26;85619;-43
2024/04/26 07:48:58;;;;;;;;;;;9.90;71.90;;;;;;5234479;26;87209;-43
2024/04/26 07:51:24;;;;;;;;;;;9.90;71.30;;;;;;5247867;26;86962;-43
2024/04/26 07:53:49;;;;;;;;;;;9.90;71.40;;;;;;5255455;26;85357;-43
2024/04/26 07:56:15;;;;;;;;;;;9.80;71.50;;;;;;5248732;26;85908;-45
2024/04/26 07:58:40;;;;;;;;;;;9.80;71.70;;;;;;5252620;26;87067;-43
2024/04/26 08:01:06;;;;;;;;;;;9.90;71.60;;;;;;5240691;26;85214;-44
2024/04/26 08:03:32;;;;;;;;;;;9.90;71.60;;;;;;5251340;26;87006;-44
2024/04/26 08:05:57;;;;;;;;;;;9.90;71.70;;;;;;5253397;26;85233;-44
2024/04/26 08:08:23;;;;;;;;;;;9.90;71.50;;;;;;5235114;26;85745;-44
2024/04/26 08:10:48;;;;;;;;;;;9.90;71.80;;;;;;5253489;26;87177;-43
2024/04/26 08:13:14;;;;;;;;;;;9.90;71.90;;;;;;5266647;26;86359;-43
2024/04/26 08:15:45;;;;;;;;;;;9.90;71.90;;;;;;5243374;26;87508;-44
2024/04/26 08:18:11;;;;;;;;;;;9.90;71.80;;;;;;5242738;26;87198;-44
2024/04/26 08:20:36;;;;;;;;;;;9.90;71.90;;;;;;5254497;26;85272;-44
2024/04/26 08:23:02;;;;;;;;;;;9.90;72.10;;;;;;5249522;26;85969;-44
2024/04/26 08:25:28;;;;;;;;;;;9.90;72.20;;;;;;5248426;26;85766;-43
2024/04/26 08:27:53;;;;;;;;;;;9.90;72.10;;;;;;5238262;26;86187;-43
2024/04/26 08:30:19;;;;;;;;;;;9.90;72.00;;;;;;5248864;26;84819;-44
2024/04/26 08:32:45;;;;;;;;;;;9.90;72.00;;;;;;5257724;26;85590;-43
2024/04/26 08:35:10;;;;;;;;;;;10.00;72.20;;;;;;5234949;26;86393;-43
2024/04/26 08:37:37;;;;;;;;;;;10.00;72.30;;;;;;5240299;26;87909;-45
2024/04/26 08:40:03;;;;;;;;;;;10.00;72.10;;;;;;5248692;26;85419;-43
2024/04/26 08:42:29;;;;;;;;;;;10.00;72.20;;;;;;5237307;26;86836;-43
2024/04/26 08:44:55;;;;;;;;;;;10.00;72.20;;;;;;5241579;26;85392;-44
2024/04/26 08:47:22;;;;;;;;;;;9.90;72.40;;;;;;5245331;26;86620;-44
2024/04/26 08:49:51;;;;;;;;;;;10.00;72.30;;;;;;5247308;26;85709;-43
2024/04/26 08:52:18;;;;;;;;;;;10.00;72.50;;;;;;5249978;26;85616;-45
2024/04/26 08:54:44;;;;;;;;;;;10.00;72.60;;;;;;5244218;26;85383;-43
2024/04/26 08:57:10;;;;;;;;;;;10.00;72.20;;;;;;5255697;26;85711;-44
2024/04/26 08:59:39;;;;;;;;;;;10.00;72.30;;;;;;5252519;26;85516;-44
2024/04/26 09:02:05;;;;;;;;;;;10.00;72.30;;;;;;5249229;26;86602;-44
2024/04/26 09:04:32;;;;;;;;;;;10.10;72.50;;;;;;5252215;26;87099;-44
2024/04/26 09:06:58;;;;;;;;;;;10.00;72.60;;;;;;5245502;26;85582;-43
2024/04/26 09:09:23;;;;;;;;;;;10.00;72.40;;;;;;5242413;26;87293;-43
2024/04/26 09:11:49;;;;;;;;;;;10.10;72.70;;;;;;5260432;26;85322;-44
2024/04/26 09:14:17;;;;;;;;;;;10.00;72.70;;;;;;5243750;26;86125;-43
2024/04/26 09:16:45;;;;;;;;;;;10.00;72.60;;;;;;5240585;26;87285;-43
2024/04/26 09:19:10;;;;;;;;;;;10.10;72.40;;;;;;5246591;26;84769;-43
2024/04/26 09:21:36;;;;;;;;;;;10.10;72.70;;;;;;5233235;26;85342;-43
2024/04/26 09:24:02;;;;;;;;;;;10.10;72.70;;;;;;5257473;26;86864;-45
2024/04/26 09:26:29;;;;;;;;;;;10.10;72.60;;;;;;5255646;26;86979;-44
2024/04/26 09:28:55;;;;;;;;;;;10.10;72.80;;;;;;5240555;26;87024;-45
2024/04/26 09:31:21;;;;;;;;;;;10.10;72.70;;;;;;5246847;26;85446;-44
2024/04/26 09:33:51;;;;;;;;;;;10.10;72.40;;;;;;5252459;26;86493;-43
2024/04/26 09:36:18;;;;;;;;;;;10.10;72.70;;;;;;5238623;26;86901;-44
2024/04/26 09:38:44;;;;;;;;;;;10.20;72.60;;;;;;5257253;26;85243;-43
2024/04/26 09:41:10;;;;;;;;;;;10.20;72.50;;;;;;5246543;26;86907;-43
2024/04/26 09:43:36;;;;;;;;;;;10.20;72.80;;;;;;5241105;26;86315;-44
2024/04/26 09:46:02;;;;;;;;;;;10.20;72.70;;;;;;5269064;26;85201;-43
2024/04/26 09:48:28;;;;;;;;;;;10.30;72.50;;;;;;5236770;26;87212;-43
2024/04/26 09:50:55;;;;;;;;;;;10.20;72.60;;;;;;5247105;26;86208;-43
2024/04/26 09:53:22;;;;;;;;;;;10.20;72.60;;;;;;5255660;26;86278;-43
2024/04/26 09:55:48;;;;;;;;;;;10.30;72.60;;;;;;5238464;26;85085;-43
2024/04/26 09:58:13;;;;;;;;;;;10.30;72.30;;;;;;5253757;26;85390;-43
2024/04/26 10:00:39;;;;;;;;;;;10.30;72.60;;;;;;5248495;26;85407;-44
2024/04/26 10:03:05;;;;;;;;;;;10.30;72.50;;;;;;5248658;26;85735;-44
2024/04/26 10:05:32;;;;;;;;;;;10.30;72.70;;;;;;5253915;26;85614;-45
2024/04/26 10:08:04;;;;;;;;;;;10.30;72.30;;;;;;5242167;26;86212;-45
2024/04/26 10:10:31;;;;;;;;;;;10.30;72.50;;;;;;5249655;26;85516;-44
2024/04/26 10:13:15;;;;;;;;;;;10.40;72.60;;;;;;5257480;26;86271;-43
2024/04/26 10:15:54;;;;;;;;;;;10.30;72.20;;;;;;5242956;26;86581;-43
2024/04/26 10:18:31;;;;;;;;;;;10.40;72.00;;;;;;5247879;26;85273;-44
2024/04/26 10:20:57;;;;;;;;;;;10.40;72.30;;;;;;5251177;26;85391;-45
2024/04/26 10:23:22;;;;;;;;;;;10.40;72.50;;;;;;5252595;26;87118;-44
2024/04/26 10:25:48;;;;;;;;;;;10.40;72.10;;;;;;5259117;26;85419;-43
2024/04/26 10:28:14;;;;;;;;;;;10.40;72.20;;;;;;5230492;26;85644;-44
2024/04/26 10:30:50;;;;;;;;;;;10.50;72.10;;;;;;5253472;26;87018;-44
2024/04/26 10:33:19;;;;;;;;;;;10.50;72.30;;;;;;5258351;26;85207;-45
2024/04/26 10:35:45;;;;;;;;;;;10.50;72.60;;;;;;5242561;26;86249;-43
2024/04/26 10:38:10;;;;;;;;;;;10.50;72.10;;;;;;5245279;26;86723;-44
2024/04/26 10:40:46;;;;;;;;;;;10.50;72.50;;;;;;5241332;26;86127;-44
2024/04/26 10:43:11;;;;;;;;;;;10.50;72.10;;;;;;5241047;26;87069;-43
2024/04/26 10:45:37;;;;;;;;;;;10.60;72.10;;;;;;5263934;26;85434;-44
2024/04/26 10:48:03;;;;;;;;;;;10.60;71.80;;;;;;5242777;26;85784;-44
2024/04/26 10:50:28;;;;;;;;;;;10.60;71.70;;;;;;5246743;26;87122;-44
2024/04/26 10:52:54;;;;;;;;;;;10.60;71.90;;;;;;5272960;26;85531;-43
2024/04/26 10:55:19;;;;;;;;;;;10.70;71.80;;;;;;5235178;26;85524;-43
2024/04/26 10:57:56;;;;;;;;;;;10.70;71.70;;;;;;5238684;26;85073;-44
2024/04/26 11:00:22;;;;;;;;;;;10.70;71.50;;;;;;5249122;26;85607;-43
2024/04/26 11:02:48;;;;;;;;;;;10.70;71.80;;;;;;5239306;26;86879;-44
2024/04/26 11:05:15;;;;;;;;;;;10.70;71.70;;;;;;5260733;26;86222;-44
2024/04/26 11:07:58;;;;;;;;;;;10.80;71.80;;;;;;5234391;26;87391;-44
2024/04/26 11:10:27;;;;;;;;;;;10.80;71.70;;;;;;5246506;26;85871;-43
2024/04/26 11:12:55;;;;;;;;;;;10.80;71.60;;;;;;5259875;26;85481;-45
2024/04/26 11:15:20;;;;;;;;;;;10.80;71.40;;;;;;5238999;26;87108;-44
2024/04/26 11:17:46;;;;;;;;;;;10.90;71.70;;;;;;5247309;26;85188;-43
2024/04/26 11:20:12;;;;;;;;;;;10.90;71.80;;;;;;5244098;26;87373;-44
2024/04/26 11:22:37;;;;;;;;;;;10.80;71.70;;;;;;5230751;26;85539;-44
2024/04/26 11:25:03;;;;;;;;;;;10.80;71.70;;;;;;5262886;26;85705;-43
2024/04/26 11:27:28;;;;;;;;;;;10.90;71.60;;;;;;5250882;26;85734;-44
2024/04/26 11:29:54;;;;;;;;;;;10.90;71.70;;;;;;5246501;26;86680;-43
2024/04/26 11:32:20;;;;;;;;;;;10.90;71.70;;;;;;5247757;26;85249;-43
2024/04/26 11:34:46;;;;;;;;;;;11.00;71.70;;;;;;5242235;26;86107;-45
2024/04/26 11:37:12;;;;;;;;;;;11.00;71.60;;;;;;5245189;26;85421;-44
2024/04/26 11:39:38;;;;;;;;;;;11.00;71.50;;;;;;5261908;26;86635;-44
2024/04/26 11:42:03;;;;;;;;;;;11.00;71.60;;;;;;5234279;26;85686;-43
2024/04/26 11:44:29;;;;;;;;;;;11.10;71.70;;;;;;5251668;26;85156;-44
2024/04/26 11:46:55;;;;;;;;;;;11.10;71.80;;;;;;5239618;26;85471;-43
2024/04/26 11:49:21;;;;;;;;;;;11.10;71.60;;;;;;5233973;26;87034;-43
2024/04/26 11:51:47;;;;;;;;;;;11.10;71.60;;;;;;5249531;26;85798;-44
2024/04/26 11:54:12;;;;;;;;;;;11.10;71.60;;;;;;5255159;26;88094;-44
2024/04/26 11:56:39;;;;;;;;;;;11.20;71.50;;;;;;5243348;26;87002;-45
2024/04/26 11:59:07;;;;;;;;;;;11.20;71.60;;;;;;5255708;26;86639;-44
2024/04/26 12:01:33;;;;;;;;;;;11.20;71.70;;;;;;5244153;26;86724;-44
2024/04/26 12:04:01;;;;;;;;;;;11.20;71.70;;;;;;5255609;26;85313;-44
2024/04/26 12:06:27;;;;;;;;;;;11.20;71.60;;;;;;5259983;26;85188;-45
2024/04/26 12:08:52;;;;;;;;;;;11.30;71.80;;;;;;5235985;26;87332;-43
2024/04/26 12:11:18;;;;;;;;;;;11.30;71.60;;;;;;5250960;26;84730;-43
2024/04/26 12:13:48;;;;;;;;;;;11.40;71.80;;;;;;5253393;26;85475;-44
2024/04/26 12:16:13;;;;;;;;;;;11.40;71.80;;;;;;5241619;26;86760;-45
2024/04/26 12:18:39;;;;;;;;;;;11.40;71.70;;;;;;5256721;26;87115;-46
2024/04/26 12:21:12;;;;;;;;;;;11.40;71.90;;;;;;5240009;26;86935;-43
2024/04/26 12:23:38;;;;;;;;;;;11.40;71.80;;;;;;5240219;26;86220;-45
2024/04/26 12:26:03;;;;;;;;;;;11.40;71.80;;;;;;5269836;26;86005;-45
2024/04/26 12:28:29;;;;;;;;;;;11.40;71.80;;;;;;5234447;26;86255;-45
2024/04/26 12:30:54;;;;;;;;;;;11.40;71.90;;;;;;5258618;26;85709;-43
2024/04/26 12:33:20;;;;;;;;;;;11.40;71.80;;;;;;5266194;26;85634;-43
2024/04/26 12:35:45;;;;;;;;;;;11.50;71.90;;;;;;5244336;26;86698;-46
2024/04/26 12:38:11;;;;;;;;;;;11.50;71.80;;;;;;5251062;26;85311;-45
2024/04/26 12:40:37;;;;;;;;;;;11.50;71.70;;;;;;5257099;26;86674;-45
2024/04/26 12:43:02;;;;;;;;;;;11.50;71.80;;;;;;5237074;26;86383;-45
2024/04/26 12:45:28;;;;;;;;;;;11.50;71.80;;;;;;5261756;26;86228;-43
2024/04/26 12:47:54;;;;;;;;;;;11.60;71.80;;;;;;5255334;26;86970;-44
2024/04/26 12:50:19;;;;;;;;;;;11.60;71.80;;;;;;5250627;26;85776;-43
2024/04/26 12:52:48;;;;;;;;;;;11.60;71.80;;;;;;5264845;26;86593;-44
2024/04/26 12:55:13;;;;;;;;;;;11.60;71.80;;;;;;5241717;26;87220;-44
2024/04/26 12:57:39;;;;;;;;;;;11.70;71.70;;;;;;5250672;26;86134;-45
2024/04/26 13:00:05;;;;;;;;;;;11.70;71.70;;;;;;5265400;26;85568;-44
2024/04/26 13:02:30;;;;;;;;;;;11.70;71.60;;;;;;5244879;26;86077;-44
2024/04/26 13:04:56;;;;;;;;;;;11.70;71.60;;;;;;5247402;26;86818;-45
2024/04/26 13:07:21;;;;;;;;;;;11.80;71.50;;;;;;5248354;26;86861;-43
2024/04/26 13:09:47;;;;;;;;;;;11.80;71.60;;;;;;5241775;26;85230;-43
2024/04/26 13:12:13;;;;;;;;;;;11.80;71.60;;;;;;5253508;26;87039;-44
2024/04/26 13:14:38;;;;;;;;;;;11.80;71.50;;;;;;5239685;26;86945;-45
2024/04/26 13:17:04;;;;;;;;;;;11.80;71.50;;;;;;5250508;26;85617;-45
2024/04/26 13:19:29;;;;;;;;;;;11.90;71.60;;;;;;5258101;26;86643;-45
2024/04/26 13:21:55;;;;;;;;;;;11.90;71.40;;;;;;5232671;26;87574;-45
2024/04/26 13:24:21;;;;;;;;;;;12.00;71.40;;;;;;5249957;26;86545;-43
2024/04/26 13:26:47;;;;;;;;;;;12.00;71.20;;;;;;5258585;26;86319;-45
2024/04/26 13:29:13;;;;;;;;;;;12.00;71.10;;;;;;5249632;26;85622;-45
2024/04/26 13:31:46;;;;;;;;;;;12.10;71.10;;;;;;5241605;26;87664;-44
2024/04/26 13:34:12;;;;;;;;;;;12.10;71.10;;;;;;5247681;26;85798;-45
2024/04/26 13:36:41;;;;;;;;;;;12.10;71.10;;;;;;5242216;26;85363;-45
2024/04/26 13:39:09;;;;;;;;;;;12.20;71.10;;;;;;5263306;26;85475;-45
2024/04/26 13:41:34;;;;;;;;;;;12.20;71.10;;;;;;5241758;26;87312;-45
2024/04/26 13:44:00;;;;;;;;;;;12.20;71.10;;;;;;5256922;26;85357;-43
2024/04/26 13:46:26;;;;;;;;;;;12.30;71.20;;;;;;5249817;26;87663;-45
2024/04/26 13:48:51;;;;;;;;;;;12.30;71.20;;;;;;5232243;26;84622;-43
2024/04/26 13:51:17;;;;;;;;;;;12.30;71.10;;;;;;5249647;26;86196;-44
2024/04/26 13:53:43;;;;;;;;;;;12.30;71.10;;;;;;5256216;26;87298;-44
2024/04/26 13:56:10;;;;;;;;;;;12.40;71.00;;;;;;5227049;26;86673;-44
2024/04/26 13:58:36;;;;;;;;;;;12.50;70.80;;;;;;5242666;26;87526;-44
2024/04/26 14:01:01;;;;;;;;;;;12.50;70.60;;;;;;5257335;26;86302;-45
2024/04/26 14:03:27;;;;;;;;;;;12.50;70.70;;;;;;5245021;26;85327;-45
2024/04/26 14:05:52;;;;;;;;;;;12.50;70.70;;;;;;5267575;26;85673;-44
2024/04/26 14:08:18;;;;;;;;;;;12.50;70.70;;;;;;5244666;26;85402;-44
2024/04/26 14:10:43;;;;;;;;;;;12.60;70.70;;;;;;5239760;26;85607;-44
2024/04/26 14:13:09;;;;;;;;;;;12.60;70.70;;;;;;5263272;26;86502;-44
2024/04/26 14:15:34;;;;;;;;;;;12.50;70.80;;;;;;5238068;26;85336;-43